sensor_id;sensor_type;location;lat;lon;timestamp;pressure;altitude;pressure_sealevel;temperature;humidity
596;BME280;19946;49.306;11.350;2023-11-21T04:15:25;95760.84;;;5.56;100.00
596;BME280;19946;49.306;11.350;2023-11-21T04:36:38;95719.06;;;5.32;100.00
596;BME280;19946;49.306;11.350;2023-11-21T04:48:04;95780.16;;;5.73;100.00
596;BME280;19946;49.306;11.350;2023-11-21T05:01:45;95785.97;;;5.86;100.00
596;BME280;19946;49.306;11.350;2023-11-21T05:05:43;95726.53;;;5.57;100.00
596;BME280;19946;49.306;11.350;2023-11-21T05:09:41;95715.94;;;5.39;100.00
596;BME280;19946;49.306;11.350;2023-11-21T05:21:27;95792.59;;;5.44;100.00
596;BME280;19946;49.306;11.350;2023-11-21T05:25:50;95779.19;;;5.40;100.00
596;BME280;19946;49.306;11.350;2023-11-21T05:30:26;95783.16;;;5.56;100.00
596;BME280;19946;49.306;11.350;2023-11-21T05:39:24;95803.59;;;5.68;100.00
596;BME280;19946;49.306;11.350;2023-11-21T05:43:26;95803.38;;;5.71;100.00
596;BME280;19946;49.306;11.350;2023-11-21T05:51:10;95804.88;;;5.74;100.00
596;BME280;19946;49.306;11.350;2023-11-21T05:55:04;95783.16;;;5.67;100.00
596;BME280;19946;49.306;11.350;2023-11-21T05:59:08;95811.44;;;5.78;100.00
596;BME280;19946;49.306;11.350;2023-11-21T06:03:11;95758.16;;;5.46;100.00
596;BME280;19946;49.306;11.350;2023-11-21T06:06:31;95779.19;;;5.52;100.00
596;BME280;19946;49.306;11.350;2023-11-21T06:10:23;95754.06;;;5.44;100.00
596;BME280;19946;49.306;11.350;2023-11-21T06:14:09;95777.78;;;5.59;100.00
596;BME280;19946;49.306;11.350;2023-11-21T06:17:37;95829.91;;;5.83;100.00
596;BME280;19946;49.306;11.350;2023-11-21T06:24:26;95830.97;;;5.92;100.00
596;BME280;19946;49.306;11.350;2023-11-21T06:28:01;95831.69;;;6.16;100.00
596;BME280;19946;49.306;11.350;2023-11-21T06:32:13;95792.72;;;5.76;100.00
596;BME280;19946;49.306;11.350;2023-11-21T06:36:05;95752.81;;;5.61;100.00
596;BME280;19946;49.306;11.350;2023-11-21T06:47:29;95790.50;;;5.49;100.00
596;BME280;19946;49.306;11.350;2023-11-21T06:51:11;95833.03;;;5.86;100.00
596;BME280;19946;49.306;11.350;2023-11-21T06:55:12;95803.00;;;5.65;100.00
596;BME280;19946;49.306;11.350;2023-11-21T06:59:21;95783.28;;;5.65;100.00
596;BME280;19946;49.306;11.350;2023-11-21T07:07:39;95843.56;;;6.17;100.00
596;BME280;19946;49.306;11.350;2023-11-21T07:11:40;95814.94;;;6.21;100.00
596;BME280;19946;49.306;11.350;2023-11-21T07:15:11;95852.47;;;6.24;100.00
596;BME280;19946;49.306;11.350;2023-11-21T07:18:33;95822.56;;;6.12;100.00
596;BME280;19946;49.306;11.350;2023-11-21T07:21:56;95809.38;;;6.16;100.00
596;BME280;19946;49.306;11.350;2023-11-21T07:25:15;95815.53;;;6.25;100.00
596;BME280;19946;49.306;11.350;2023-11-21T07:28:19;95874.66;;;6.58;100.00
596;BME280;19946;49.306;11.350;2023-11-21T07:31:27;95860.88;;;6.48;100.00
596;BME280;19946;49.306;11.350;2023-11-21T07:34:53;95899.16;;;6.74;100.00
596;BME280;19946;49.306;11.350;2023-11-21T07:38:09;95888.56;;;6.45;100.00
596;BME280;19946;49.306;11.350;2023-11-21T07:41:50;95900.50;;;6.57;100.00
596;BME280;19946;49.306;11.350;2023-11-21T07:46:04;95879.22;;;6.21;100.00
596;BME280;19946;49.306;11.350;2023-11-21T07:49:55;95861.94;;;6.23;100.00
596;BME280;19946;49.306;11.350;2023-11-21T07:57:49;95873.03;;;6.35;100.00
596;BME280;19946;49.306;11.350;2023-11-21T08:01:43;95874.91;;;6.33;100.00
596;BME280;19946;49.306;11.350;2023-11-21T08:09:43;95925.34;;;6.90;100.00
596;BME280;19946;49.306;11.350;2023-11-21T08:17:43;95916.81;;;6.89;100.00
596;BME280;19946;49.306;11.350;2023-11-21T08:21:13;95879.09;;;6.45;100.00
596;BME280;19946;49.306;11.350;2023-11-21T08:25:10;95914.19;;;7.12;100.00
596;BME280;19946;49.306;11.350;2023-11-21T08:28:18;95874.25;;;6.74;100.00
596;BME280;19946;49.306;11.350;2023-11-21T08:31:57;95922.84;;;7.11;100.00
596;BME280;19946;49.306;11.350;2023-11-21T08:35:35;95902.47;;;7.08;100.00
596;BME280;19946;49.306;11.350;2023-11-21T08:39:00;95882.28;;;6.92;100.00
596;BME280;19946;49.306;11.350;2023-11-21T08:42:11;95929.88;;;7.41;100.00
596;BME280;19946;49.306;11.350;2023-11-21T08:56:39;95931.19;;;7.35;100.00
596;BME280;19946;49.306;11.350;2023-11-21T09:04:21;95896.16;;;7.12;100.00
596;BME280;19946;49.306;11.350;2023-11-21T09:07:58;95947.25;;;7.59;100.00
596;BME280;19946;49.306;11.350;2023-11-21T09:11:06;95944.25;;;7.75;100.00
596;BME280;19946;49.306;11.350;2023-11-21T09:14:41;95905.47;;;7.56;100.00
596;BME280;19946;49.306;11.350;2023-11-21T09:17:48;95936.47;;;7.86;100.00
596;BME280;19946;49.306;11.350;2023-11-21T09:20:56;95953.22;;;8.22;100.00
596;BME280;19946;49.306;11.350;2023-11-21T09:24:03;95957.50;;;8.12;100.00
596;BME280;19946;49.306;11.350;2023-11-21T09:27:07;95964.50;;;8.00;100.00
596;BME280;19946;49.306;11.350;2023-11-21T09:30:15;95908.34;;;7.62;100.00
596;BME280;19946;49.306;11.350;2023-11-21T09:33:22;95963.69;;;7.47;100.00
596;BME280;19946;49.306;11.350;2023-11-21T09:36:26;95982.88;;;7.86;100.00
596;BME280;19946;49.306;11.350;2023-11-21T09:39:37;95960.19;;;7.69;100.00
596;BME280;19946;49.306;11.350;2023-11-21T09:43:00;95987.00;;;7.78;100.00
596;BME280;19946;49.306;11.350;2023-11-21T09:46:08;95985.25;;;7.78;100.00
596;BME280;19946;49.306;11.350;2023-11-21T09:49:37;95956.50;;;7.83;100.00
596;BME280;19946;49.306;11.350;2023-11-21T09:53:17;95974.06;;;8.10;100.00
596;BME280;19946;49.306;11.350;2023-11-21T09:56:29;95960.34;;;8.30;100.00
596;BME280;19946;49.306;11.350;2023-11-21T09:59:55;95965.06;;;7.83;100.00
596;BME280;19946;49.306;11.350;2023-11-21T10:03:01;95978.28;;;8.11;100.00
596;BME280;19946;49.306;11.350;2023-11-21T10:06:15;95960.41;;;7.77;100.00
596;BME280;19946;49.306;11.350;2023-11-21T10:09:48;95890.69;;;7.58;100.00
596;BME280;19946;49.306;11.350;2023-11-21T10:13:12;95907.88;;;7.57;100.00
596;BME280;19946;49.306;11.350;2023-11-21T10:16:46;95938.72;;;7.80;100.00
596;BME280;19946;49.306;11.350;2023-11-21T10:20:03;95934.56;;;7.67;100.00
596;BME280;19946;49.306;11.350;2023-11-21T10:23:30;95982.69;;;7.99;100.00
596;BME280;19946;49.306;11.350;2023-11-21T10:26:43;95983.50;;;7.99;100.00
596;BME280;19946;49.306;11.350;2023-11-21T10:44:02;95953.88;;;7.94;100.00
596;BME280;19946;49.306;11.350;2023-11-21T11:04:15;95958.44;;;7.90;100.00
